createdAt,value
2022-08-12T00:01:04.827Z,94873.25
2022-08-12T00:03:50.966Z,94888.66
2022-08-12T00:06:39.524Z,94884.25
2022-08-12T00:09:26.516Z,94875.47
2022-08-12T00:12:13.459Z,94879.84
2022-08-12T00:15:01.105Z,94866.19
2022-08-12T00:17:47.231Z,94867.94
2022-08-12T00:20:33.164Z,94857.50
2022-08-12T00:23:18.687Z,94864.69
2022-08-12T00:26:23.063Z,94860.13
2022-08-12T00:29:13.588Z,94843.41
2022-08-12T00:32:00.988Z,94847.19
2022-08-12T00:34:49.280Z,94847.13
2022-08-12T00:37:36.189Z,94835.22
2022-08-12T00:40:28.545Z,94840.16
2022-08-12T00:42:57.102Z,94830.88
2022-08-12T00:45:24.971Z,94836.50
2022-08-12T00:47:53.588Z,94851.06
2022-08-12T00:50:22.723Z,94841.94
2022-08-12T00:52:52.615Z,94827.78
2022-08-12T00:55:20.513Z,94833.25
2022-08-12T00:57:50.125Z,94831.66
2022-08-12T01:00:21.534Z,94821.19
2022-08-12T01:02:57.578Z,94826.22
2022-08-12T01:05:44.709Z,94834.13
2022-08-12T01:08:30.383Z,94833.69
2022-08-12T01:11:16.258Z,94826.34
2022-08-12T01:13:50.274Z,94835.56
2022-08-12T01:16:22.692Z,94834.97
2022-08-12T01:18:52.685Z,94834.19
2022-08-12T01:21:56.864Z,94817.41
2022-08-12T01:24:31.386Z,94818.56
2022-08-12T01:27:01.424Z,94821.44
2022-08-12T01:29:33.055Z,94823.41
2022-08-12T01:32:06.322Z,94830.34
2022-08-12T01:34:39.531Z,94831.91
2022-08-12T01:37:09.064Z,94831.44
2022-08-12T01:40:31.623Z,94828.50
2022-08-12T01:42:42.143Z,94828.50
2022-08-12T01:45:10.236Z,94825.13
2022-08-12T01:47:45.658Z,94817.97
2022-08-12T01:50:55.127Z,94813.22
2022-08-12T01:53:50.374Z,94829.06
2022-08-12T01:56:22.120Z,94830.16
2022-08-12T01:59:13.429Z,94825.84
2022-08-12T02:01:41.713Z,94803.34
2022-08-12T02:05:04.761Z,94795.69
2022-08-12T02:08:09.317Z,94796.31
2022-08-12T02:11:29.465Z,94798.50
2022-08-12T02:14:00.346Z,94805.69
2022-08-12T02:16:38.770Z,94797.81
2022-08-12T02:19:49.896Z,94788.66
2022-08-12T02:22:22.363Z,94785.75
2022-08-12T02:24:50.959Z,94779.91
2022-08-12T02:27:19.906Z,94783.81
2022-08-12T02:29:48.455Z,94788.22
2022-08-12T02:32:16.150Z,94798.19
2022-08-12T02:34:44.679Z,94790.03
2022-08-12T02:37:15.666Z,94784.06
2022-08-12T02:39:49.830Z,94785.19
2022-08-12T02:42:20.689Z,94769.63
2022-08-12T02:44:51.568Z,94780.59
2022-08-12T02:47:59.319Z,94775.97
2022-08-12T02:50:10.953Z,94763.25
2022-08-12T02:52:39.013Z,94774.50
2022-08-12T02:55:28.733Z,94776.25
2022-08-12T02:58:07.081Z,94766.25
2022-08-12T03:00:37.925Z,94769.59
2022-08-12T03:03:10.314Z,94773.44
2022-08-12T03:05:45.778Z,94772.50
2022-08-12T03:08:32.201Z,94773.03
2022-08-12T03:11:14.410Z,94780.59
2022-08-12T03:13:46.943Z,94780.00
2022-08-12T03:16:14.881Z,94788.34
2022-08-12T03:18:46.284Z,94787.97
2022-08-12T03:21:17.109Z,94792.00
2022-08-12T03:23:46.112Z,94782.00
2022-08-12T03:26:14.881Z,94767.47
2022-08-12T03:28:52.046Z,94766.59
2022-08-12T03:31:21.896Z,94786.97
2022-08-12T03:34:00.707Z,94791.56
2022-08-12T03:36:35.512Z,94770.22
2022-08-12T03:39:18.905Z,94784.09
2022-08-12T03:41:52.037Z,94767.53
2022-08-12T03:44:53.751Z,94767.53
2022-08-12T03:47:53.825Z,94762.44
2022-08-12T03:50:39.810Z,94778.34
2022-08-12T03:53:29.025Z,94784.25
2022-08-12T03:56:15.163Z,94794.56
2022-08-12T03:59:00.942Z,94784.56
2022-08-12T04:01:27.971Z,94785.94
2022-08-12T04:03:55.436Z,94790.38
2022-08-12T04:06:34.527Z,94790.84
2022-08-12T04:09:16.267Z,94803.19
2022-08-12T04:12:03.420Z,94776.50
2022-08-12T04:14:31.385Z,94790.91
2022-08-12T04:16:58.563Z,94779.63
2022-08-12T04:19:26.596Z,94789.84
2022-08-12T04:22:02.429Z,94778.03
2022-08-12T04:24:35.488Z,94781.50
2022-08-12T04:27:05.783Z,94783.72
2022-08-12T04:30:29.374Z,94788.88
2022-08-12T04:32:21.443Z,94784.53
2022-08-12T04:34:48.491Z,94785.63
2022-08-12T04:37:16.687Z,94788.72
2022-08-12T04:39:46.042Z,94781.56
2022-08-12T04:42:13.411Z,94782.28
2022-08-12T04:44:40.292Z,94761.88
2022-08-12T04:47:11.787Z,94765.41
2022-08-12T04:49:40.981Z,94783.03
2022-08-12T04:52:08.284Z,94780.94
2022-08-12T04:54:35.931Z,94803.94
2022-08-12T04:57:04.351Z,94791.53
2022-08-12T04:59:43.705Z,94791.09
2022-08-12T05:02:21.302Z,94798.25
2022-08-12T05:04:58.849Z,94779.59
2022-08-12T05:07:28.072Z,94789.13
2022-08-12T05:10:01.031Z,94791.53
2022-08-12T05:12:38.645Z,94784.81
2022-08-12T05:15:19.563Z,94781.56
2022-08-12T05:17:55.627Z,94789.09
2022-08-12T05:20:23.116Z,94800.78
2022-08-12T05:22:56.937Z,94811.59
2022-08-12T05:25:25.182Z,94808.34
2022-08-12T05:27:58.630Z,94810.44
2022-08-12T05:30:27.955Z,94810.94
2022-08-12T05:32:59.856Z,94802.09
2022-08-12T05:35:27.081Z,94797.53
2022-08-12T05:38:13.886Z,94818.81
2022-08-12T05:40:42.079Z,94821.84
2022-08-12T05:43:09.210Z,94801.47
2022-08-12T05:45:38.341Z,94799.75
2022-08-12T05:48:08.756Z,94805.59
2022-08-12T05:50:36.348Z,94805.63
2022-08-12T05:53:04.044Z,94808.56
2022-08-12T05:55:31.799Z,94804.88
2022-08-12T05:57:59.575Z,94823.97
2022-08-12T06:00:26.919Z,94818.22
2022-08-12T06:03:01.390Z,94824.50
2022-08-12T06:05:51.872Z,94832.59
2022-08-12T06:08:21.494Z,94829.31
2022-08-12T06:10:50.495Z,94836.72
2022-08-12T06:13:28.542Z,94845.38
2022-08-12T06:16:07.533Z,94845.34
2022-08-12T06:18:34.993Z,94827.94
2022-08-12T06:21:02.557Z,94836.50
2022-08-12T06:23:30.319Z,94836.38
2022-08-12T06:25:57.992Z,94844.56
2022-08-12T06:28:25.624Z,94826.19
2022-08-12T06:31:22.223Z,94838.72
2022-08-12T06:34:00.206Z,94846.66
2022-08-12T06:36:32.618Z,94844.19
2022-08-12T06:39:01.599Z,94850.19
2022-08-12T06:42:02.482Z,94851.00
2022-08-12T06:44:34.440Z,94868.44
2022-08-12T06:47:01.443Z,94856.22
2022-08-12T06:49:33.562Z,94833.44
2022-08-12T06:52:00.488Z,94852.97
2022-08-12T06:54:31.880Z,94853.00
2022-08-12T06:57:04.889Z,94874.44
2022-08-12T06:59:51.181Z,94871.59
2022-08-12T07:02:22.662Z,94871.59
2022-08-12T07:04:49.932Z,94869.19
2022-08-12T07:07:16.848Z,94862.41
2022-08-12T07:10:00.110Z,94880.09
2022-08-12T07:12:32.271Z,94857.00
2022-08-12T07:15:02.436Z,94861.38
2022-08-12T07:17:37.446Z,94871.00
2022-08-12T07:20:29.539Z,94857.09
2022-08-12T07:22:57.881Z,94873.72
2022-08-12T07:25:41.093Z,94883.09
2022-08-12T07:28:23.657Z,94868.25
2022-08-12T07:30:52.287Z,94889.91
2022-08-12T07:33:28.273Z,94889.22
2022-08-12T07:35:57.361Z,94880.41
2022-08-12T07:38:28.954Z,94886.97
2022-08-12T07:41:08.384Z,94886.06
2022-08-12T07:43:54.549Z,94882.25
2022-08-12T07:46:26.002Z,94882.69
2022-08-12T07:48:55.176Z,94884.31
2022-08-12T07:51:25.522Z,94867.94
2022-08-12T07:54:00.250Z,94892.78
2022-08-12T07:56:29.252Z,94880.13
2022-08-12T07:58:59.513Z,94872.03
2022-08-12T08:01:27.135Z,94871.09
2022-08-12T08:04:18.507Z,94880.66
2022-08-12T08:06:46.402Z,94880.97
2022-08-12T08:09:15.155Z,94881.63
2022-08-12T08:12:00.791Z,94872.66
2022-08-12T08:14:32.979Z,94857.66
2022-08-12T08:17:03.792Z,94872.81
2022-08-12T08:19:32.548Z,94901.09
2022-08-12T08:22:00.184Z,94889.41
2022-08-12T08:24:29.127Z,94900.16
2022-08-12T08:26:59.285Z,94911.59
2022-08-12T08:29:26.884Z,94920.09
2022-08-12T08:32:01.575Z,94896.69
2022-08-12T08:34:54.191Z,94890.66
2022-08-12T08:37:20.760Z,94913.38
2022-08-12T08:39:47.850Z,94883.31
2022-08-12T08:42:33.349Z,94896.47
2022-08-12T08:45:01.417Z,94886.25
2022-08-12T08:47:28.279Z,94909.09
2022-08-12T08:50:01.176Z,94935.16
2022-08-12T08:52:46.453Z,94925.19
2022-08-12T08:55:16.451Z,94894.47
2022-08-12T08:57:51.237Z,94904.81
2022-08-12T09:00:20.257Z,94892.47
2022-08-12T09:02:59.058Z,94897.19
2022-08-12T09:05:27.932Z,94876.88
2022-08-12T09:08:09.092Z,94898.25
2022-08-12T09:10:45.751Z,94881.66
2022-08-12T09:14:10.654Z,94902.50
2022-08-12T09:16:20.060Z,94892.78
2022-08-12T09:18:52.162Z,94888.81
2022-08-12T09:21:20.774Z,94897.78
2022-08-12T09:23:59.027Z,94897.38
2022-08-12T09:26:29.601Z,94896.03
2022-08-12T09:29:00.517Z,94892.88
2022-08-12T09:32:03.131Z,94919.41
2022-08-12T09:34:25.500Z,94921.50
2022-08-12T09:37:02.980Z,94910.34
2022-08-12T09:40:01.469Z,94904.72
2022-08-12T09:43:11.026Z,94915.16
2022-08-12T09:46:06.194Z,94894.38
2022-08-12T09:48:35.215Z,94906.59
2022-08-12T09:51:16.660Z,94898.34
2022-08-12T09:54:05.412Z,94881.00
2022-08-12T09:56:59.842Z,94896.91
2022-08-12T10:00:16.904Z,94867.03
2022-08-12T10:02:45.121Z,94873.41
2022-08-12T10:04:57.991Z,94881.63
2022-08-12T10:07:25.398Z,94879.13
2022-08-12T10:09:58.259Z,94888.44
2022-08-12T10:13:07.758Z,94882.34
2022-08-12T10:16:01.541Z,94868.78
2022-08-12T10:18:19.730Z,94883.53
2022-08-12T10:20:46.857Z,94869.69
2022-08-12T10:23:13.679Z,94879.81
2022-08-12T10:26:36.646Z,94878.09
2022-08-12T10:30:01.772Z,94882.84
2022-08-12T10:32:20.792Z,94886.28
2022-08-12T10:34:40.428Z,94863.22
2022-08-12T10:38:07.393Z,94869.63
2022-08-12T10:40:11.387Z,94876.34
2022-08-12T10:43:00.681Z,94873.94
2022-08-12T10:45:30.314Z,94902.91
2022-08-12T10:48:20.456Z,94882.72
2022-08-12T10:51:02.435Z,94871.25
2022-08-12T10:53:45.019Z,94869.59
2022-08-12T10:56:18.081Z,94853.28
2022-08-12T10:58:47.077Z,94877.63
2022-08-12T11:01:49.599Z,94866.13
2022-08-12T11:04:27.160Z,94864.88
2022-08-12T11:07:07.263Z,94861.28
2022-08-12T11:09:55.741Z,94849.19
2022-08-12T11:12:55.208Z,94862.69
2022-08-12T11:15:21.264Z,94866.81
2022-08-12T11:18:03.095Z,94861.59
2022-08-12T11:20:31.072Z,94866.03
2022-08-12T11:23:25.514Z,94858.94
2022-08-12T11:25:57.628Z,94870.88
2022-08-12T11:28:34.140Z,94859.00
2022-08-12T11:31:03.549Z,94854.75
2022-08-12T11:34:05.009Z,94856.97
2022-08-12T11:36:22.023Z,94857.28
2022-08-12T11:38:51.189Z,94857.09
2022-08-12T11:41:31.304Z,94862.72
2022-08-12T11:44:35.322Z,94848.63
2022-08-12T11:46:54.743Z,94865.88
2022-08-12T11:49:31.646Z,94853.69
2022-08-12T11:52:03.747Z,94840.50
2022-08-12T11:54:31.672Z,94850.13
2022-08-12T11:57:02.099Z,94851.38
2022-08-12T12:02:21.027Z,94861.59
2022-08-12T12:04:52.562Z,94823.28
2022-08-12T12:07:33.748Z,94836.78
2022-08-12T12:10:11.225Z,94857.56
2022-08-12T12:12:38.392Z,94820.94
2022-08-12T12:15:09.680Z,94847.63
2022-08-12T12:17:38.972Z,94845.78
2022-08-12T12:20:09.556Z,94860.28
2022-08-12T12:22:41.386Z,94864.25
2022-08-12T12:25:13.052Z,94848.28
2022-08-12T12:28:05.957Z,94861.13
2022-08-12T12:30:36.496Z,94860.19
2022-08-12T12:33:05.451Z,94852.47
2022-08-12T12:36:18.136Z,94856.00
2022-08-12T12:38:21.035Z,94846.31
2022-08-12T12:40:52.593Z,94816.63
2022-08-12T12:43:28.756Z,94854.69
2022-08-12T12:46:07.050Z,94821.13
2022-08-12T12:48:36.169Z,94838.59
2022-08-12T12:51:48.385Z,94836.16
2022-08-12T12:54:08.432Z,94811.59
2022-08-12T12:56:42.541Z,94804.78
2022-08-12T12:59:33.793Z,94806.91
2022-08-12T13:02:08.138Z,94812.16
2022-08-12T13:04:37.201Z,94815.81
2022-08-12T13:07:06.877Z,94834.72
2022-08-12T13:09:36.360Z,94815.63
2022-08-12T13:12:10.439Z,94824.25
2022-08-12T13:14:39.835Z,94816.41
2022-08-12T13:17:09.747Z,94808.00
2022-08-12T13:19:46.872Z,94813.22
2022-08-12T13:22:20.527Z,94815.03
2022-08-12T13:24:52.181Z,94802.22
2022-08-12T13:27:22.676Z,94811.81
2022-08-12T13:30:03.694Z,94806.75
2022-08-12T13:32:31.823Z,94807.28
2022-08-12T13:35:04.190Z,94806.47
2022-08-12T13:37:56.752Z,94793.56
2022-08-12T13:40:25.443Z,94801.59
2022-08-12T13:42:57.869Z,94787.38
2022-08-12T13:45:26.377Z,94787.94
2022-08-12T13:48:04.734Z,94797.69
2022-08-12T13:50:36.807Z,94807.34
2022-08-12T13:53:24.911Z,94812.91
2022-08-12T13:56:04.298Z,94790.09
2022-08-12T13:58:34.642Z,94804.81
2022-08-12T14:01:04.717Z,94805.97
2022-08-12T14:03:51.065Z,94787.94
2022-08-12T14:06:20.184Z,94808.97
2022-08-12T14:08:50.896Z,94801.25
2022-08-12T14:11:19.263Z,94798.78
2022-08-12T14:14:03.427Z,94795.88
2022-08-12T14:16:46.825Z,94807.28
2022-08-12T14:19:22.333Z,94804.13
2022-08-12T14:22:01.552Z,94811.94
2022-08-12T14:24:40.845Z,94785.41
2022-08-12T14:27:10.432Z,94790.09
2022-08-12T14:30:06.123Z,94794.50
2022-08-12T14:32:36.711Z,94805.97
2022-08-12T14:35:11.084Z,94785.66
2022-08-12T14:37:57.958Z,94777.53
2022-08-12T14:40:30.331Z,94786.31
2022-08-12T14:42:59.189Z,94793.09
2022-08-12T14:45:44.448Z,94804.44
2022-08-12T14:48:15.276Z,94800.22
2022-08-12T14:51:09.739Z,94800.66
2022-08-12T14:57:05.960Z,94791.94
2022-08-12T14:59:26.982Z,94789.25
2022-08-12T15:02:20.761Z,94799.41
2022-08-12T15:04:56.221Z,94800.00
2022-08-12T15:07:34.221Z,94804.81
2022-08-12T15:10:10.874Z,94804.19
2022-08-12T15:12:40.528Z,94801.47
2022-08-12T15:15:10.330Z,94797.53
2022-08-12T15:17:38.675Z,94793.88
2022-08-12T15:20:31.134Z,94789.91
2022-08-12T15:22:57.882Z,94784.53
2022-08-12T15:25:25.497Z,94771.88
2022-08-12T15:28:04.437Z,94788.41
2022-08-12T15:30:41.045Z,94793.66
2022-08-12T15:33:12.825Z,94784.25
2022-08-12T15:35:52.265Z,94779.16
2022-08-12T15:38:25.253Z,94803.22
2022-08-12T15:40:53.536Z,94789.72
2022-08-12T15:43:27.328Z,94779.81
2022-08-12T15:46:15.637Z,94804.63
2022-08-12T15:48:47.010Z,94779.84
2022-08-12T15:51:57.250Z,94772.63
2022-08-12T15:54:30.947Z,94766.06
2022-08-12T15:57:07.697Z,94768.22
2022-08-12T15:59:51.281Z,94773.31
2022-08-12T16:02:19.874Z,94775.69
2022-08-12T16:04:51.283Z,94764.75
2022-08-12T16:07:29.984Z,94785.22
2022-08-12T16:10:06.286Z,94771.16
2022-08-12T16:12:43.302Z,94781.13
2022-08-12T16:15:11.951Z,94768.44
2022-08-12T16:18:19.289Z,94782.03
2022-08-12T16:20:34.294Z,94789.53
2022-08-12T16:23:04.746Z,94790.56
2022-08-12T16:26:03.049Z,94804.47
2022-08-12T16:28:32.243Z,94793.78
2022-08-12T16:31:00.308Z,94789.91
2022-08-12T16:33:59.391Z,94786.41
2022-08-12T16:36:31.747Z,94801.13
2022-08-12T16:39:01.479Z,94780.56
2022-08-12T16:41:39.844Z,94788.38
2022-08-12T16:44:09.019Z,94785.13
2022-08-12T16:46:37.432Z,94770.41
2022-08-12T16:49:08.997Z,94771.16
2022-08-12T16:51:46.719Z,94771.69
2022-08-12T16:54:21.912Z,94776.09
2022-08-12T16:56:58.330Z,94776.75
2022-08-12T16:59:53.432Z,94771.44
2022-08-12T17:02:33.858Z,94766.00
2022-08-12T17:05:05.128Z,94765.84
2022-08-12T17:07:38.245Z,94758.22
2022-08-12T17:10:13.552Z,94749.38
2022-08-12T17:12:45.521Z,94758.81
2022-08-12T17:15:50.112Z,94755.09
2022-08-12T17:18:39.073Z,94758.94
2022-08-12T17:20:56.422Z,94750.28
2022-08-12T17:23:26.770Z,94754.78
2022-08-12T17:26:02.399Z,94752.88
2022-08-12T17:28:31.742Z,94748.53
2022-08-12T17:31:01.024Z,94745.28
2022-08-12T17:33:33.259Z,94739.03
2022-08-12T17:36:05.777Z,94758.56
2022-08-12T17:38:36.055Z,94751.31
2022-08-12T17:41:22.235Z,94749.53
2022-08-12T17:43:58.555Z,94754.41
2022-08-12T17:46:33.259Z,94757.31
2022-08-12T17:49:00.911Z,94761.34
2022-08-12T17:51:50.504Z,94757.22
2022-08-12T17:54:23.553Z,94754.06
2022-08-12T17:56:51.300Z,94755.16
2022-08-12T17:59:41.771Z,94761.78
2022-08-12T18:02:08.226Z,94759.59
2022-08-12T18:04:36.411Z,94763.53
2022-08-12T18:07:06.288Z,94769.31
2022-08-12T18:09:36.900Z,94764.03
2022-08-12T18:12:26.809Z,94766.34
2022-08-12T18:16:03.516Z,94772.31
2022-08-12T18:18:01.790Z,94761.19
2022-08-12T18:20:32.813Z,94770.22
2022-08-12T18:23:04.623Z,94776.44
2022-08-12T18:26:15.454Z,94776.84
2022-08-12T18:28:43.237Z,94771.19
2022-08-12T18:31:14.216Z,94767.84
2022-08-12T18:33:46.111Z,94757.25
2022-08-12T18:36:14.192Z,94766.25
2022-08-12T18:38:51.351Z,94776.72
2022-08-12T18:41:36.039Z,94762.41
2022-08-12T18:44:08.083Z,94772.78
2022-08-12T18:46:54.079Z,94776.00
2022-08-12T18:49:30.603Z,94773.16
2022-08-12T18:52:04.837Z,94771.75
2022-08-12T18:54:36.128Z,94778.16
2022-08-12T18:57:16.717Z,94779.66
2022-08-12T19:00:00.683Z,94782.59
2022-08-12T19:02:33.070Z,94780.38
2022-08-12T19:05:09.309Z,94787.50
2022-08-12T19:07:49.510Z,94789.69
2022-08-12T19:10:23.130Z,94782.13
2022-08-12T19:13:12.718Z,94763.47
2022-08-12T19:15:45.586Z,94770.47
2022-08-12T19:18:13.282Z,94767.06
2022-08-12T19:20:42.058Z,94779.28
2022-08-12T19:23:21.043Z,94778.25
2022-08-12T19:25:59.260Z,94769.84
2022-08-12T19:28:34.961Z,94773.16
2022-08-12T19:31:55.516Z,94760.00
2022-08-12T19:38:03.211Z,94773.38
2022-08-12T19:40:31.785Z,94771.94
2022-08-12T19:43:18.905Z,94769.44
2022-08-12T19:45:56.546Z,94774.38
2022-08-12T19:48:30.471Z,94764.53
2022-08-12T19:50:59.347Z,94757.41
2022-08-12T19:53:56.873Z,94757.69
2022-08-12T19:56:25.188Z,94754.50
2022-08-12T19:58:52.515Z,94765.09
2022-08-12T20:01:21.638Z,94756.84
2022-08-12T20:03:57.394Z,94767.72
2022-08-12T20:06:29.259Z,94765.25
2022-08-12T20:08:58.407Z,94756.31
2022-08-12T20:12:09.029Z,94764.16
2022-08-12T20:14:18.975Z,94757.09
2022-08-12T20:16:51.609Z,94741.59
2022-08-12T20:19:23.473Z,94754.09
2022-08-12T20:21:50.562Z,94758.50
2022-08-12T20:24:19.094Z,94746.41
2022-08-12T20:26:46.514Z,94754.53
2022-08-12T20:29:13.737Z,94743.97
2022-08-12T20:31:41.502Z,94744.28
2022-08-12T20:34:12.347Z,94742.91
2022-08-12T20:36:44.971Z,94742.75
2022-08-12T20:39:35.925Z,94740.81
2022-08-12T20:42:07.254Z,94744.44
2022-08-12T20:44:39.687Z,94742.56
2022-08-12T20:47:20.263Z,94745.56
2022-08-12T20:49:55.662Z,94754.31
2022-08-12T20:52:30.220Z,94764.50
2022-08-12T20:54:58.101Z,94747.34
2022-08-12T20:57:38.131Z,94740.34
2022-08-12T21:00:18.150Z,94729.16
2022-08-12T21:02:50.409Z,94728.22
2022-08-12T21:06:09.838Z,94710.66
2022-08-12T21:08:26.666Z,94713.28
2022-08-12T21:10:58.983Z,94715.47
2022-08-12T21:13:27.089Z,94712.41
2022-08-12T21:16:00.024Z,94720.00
2022-08-12T21:18:29.071Z,94728.66
2022-08-12T21:20:59.020Z,94718.63
2022-08-12T21:23:30.753Z,94704.91
2022-08-12T21:26:06.158Z,94710.53
2022-08-12T21:28:38.500Z,94710.22
2022-08-12T21:32:34.738Z,94708.88
2022-08-12T21:34:07.960Z,94709.31
2022-08-12T21:36:39.883Z,94713.25
2022-08-12T21:39:18.934Z,94717.56
2022-08-12T21:41:57.248Z,94710.72
2022-08-12T21:45:48.438Z,94716.69
2022-08-12T21:47:19.782Z,94712.78
2022-08-12T21:49:55.745Z,94700.47
2022-08-12T21:52:35.510Z,94713.53
2022-08-12T21:55:18.280Z,94714.06
2022-08-12T21:57:53.136Z,94704.88
2022-08-12T22:00:31.943Z,94694.06
2022-08-12T22:04:02.661Z,94697.94
2022-08-12T22:06:31.419Z,94702.19
2022-08-12T22:09:17.152Z,94687.88
2022-08-12T22:11:57.006Z,94689.38
2022-08-12T22:14:28.073Z,94692.78
2022-08-12T22:16:56.919Z,94689.47
2022-08-12T22:19:23.866Z,94680.84
2022-08-12T22:21:53.758Z,94693.63
2022-08-12T22:24:26.981Z,94693.34
2022-08-12T22:27:17.879Z,94684.44
2022-08-12T22:30:16.869Z,94699.25
2022-08-12T22:32:50.134Z,94687.22
2022-08-12T22:35:55.954Z,94691.94
2022-08-12T22:38:24.119Z,94691.31
2022-08-12T22:40:54.740Z,94700.22
2022-08-12T22:43:58.965Z,94692.97
2022-08-12T22:46:52.942Z,94687.81
2022-08-12T22:49:36.878Z,94687.47
2022-08-12T22:52:18.584Z,94685.69
2022-08-12T22:55:03.802Z,94684.38
2022-08-12T22:57:54.010Z,94685.41
2022-08-12T23:00:24.301Z,94674.13
2022-08-12T23:02:57.028Z,94674.97
2022-08-12T23:05:36.872Z,94665.31
2022-08-12T23:08:21.934Z,94656.63
2022-08-12T23:10:49.743Z,94665.44
2022-08-12T23:13:43.251Z,94670.09
2022-08-12T23:16:28.387Z,94674.25
2022-08-12T23:19:01.475Z,94679.06
2022-08-12T23:22:06.714Z,94653.16
2022-08-12T23:24:35.560Z,94657.69
2022-08-12T23:27:23.691Z,94667.81
2022-08-12T23:30:17.614Z,94659.00
2022-08-12T23:32:38.571Z,94649.00
2022-08-12T23:35:07.287Z,94656.84
2022-08-12T23:37:47.841Z,94669.38
2022-08-12T23:40:22.296Z,94663.47
2022-08-12T23:42:51.239Z,94641.16
2022-08-12T23:45:20.121Z,94648.34
2022-08-12T23:48:00.202Z,94629.69
2022-08-12T23:50:34.418Z,94640.41
2022-08-12T23:53:06.597Z,94651.16
2022-08-12T23:55:45.665Z,94647.28
2022-08-12T23:58:22.877Z,94648.84
